Time;durP1;ratioP1;P1;durP2;ratioP2;P2;SDS_P1;SDS_P2;PMS_P1;PMS_P2;Temp;Humidity;BMP_temperature;BMP_pressure;BME280_temperature;BME280_humidity;BME280_pressure;Samples;Min_cycle;Max_cycle;Signal;HPM_P1;HPM_P2
2023/07/01 00:02:10;;;;;;;2.17;1.45;;;17.70;99.90;;;;;;5053704;28;20037;-66
2023/07/01 00:04:35;;;;;;;5.28;1.60;;;17.60;99.90;;;;;;5053295;28;20094;-66
2023/07/01 00:07:01;;;;;;;4.40;1.60;;;17.60;99.90;;;;;;5052425;28;20048;-65
2023/07/01 00:09:27;;;;;;;1.83;1.40;;;17.50;99.90;;;;;;5047257;28;20127;-65
2023/07/01 00:11:53;;;;;;;3.15;1.70;;;17.50;99.90;;;;;;5047897;28;20063;-65
2023/07/01 00:14:18;;;;;;;2.60;1.60;;;17.50;99.90;;;;;;5048256;28;20785;-65
2023/07/01 00:16:44;;;;;;;3.17;2.20;;;17.40;99.90;;;;;;5050114;28;20076;-65
2023/07/01 00:19:10;;;;;;;2.65;1.73;;;17.50;99.90;;;;;;5036719;28;20040;-65
2023/07/01 00:21:35;;;;;;;4.22;1.65;;;17.50;99.90;;;;;;5050264;28;20040;-65
2023/07/01 00:24:01;;;;;;;3.60;1.83;;;17.60;99.90;;;;;;5050568;28;20041;-66
2023/07/01 00:26:26;;;;;;;6.90;1.60;;;17.60;99.90;;;;;;5047208;28;20033;-65
2023/07/01 00:28:55;;;;;;;5.15;1.80;;;17.60;99.90;;;;;;5049942;28;20663;-66
2023/07/01 00:31:21;;;;;;;3.85;1.42;;;17.60;99.90;;;;;;5047837;28;20760;-65
2023/07/01 00:33:46;;;;;;;3.83;2.20;;;17.50;99.90;;;;;;5048449;28;20041;-66
2023/07/01 00:36:12;;;;;;;2.90;1.98;;;17.50;99.90;;;;;;5047292;28;21204;-65
2023/07/01 00:38:38;;;;;;;4.82;2.22;;;17.40;99.90;;;;;;5053861;28;20115;-66
2023/07/01 00:41:03;;;;;;;2.75;2.00;;;17.40;99.90;;;;;;5045396;28;20024;-65
2023/07/01 00:43:29;;;;;;;3.38;1.58;;;17.30;99.90;;;;;;5049936;28;20485;-66
2023/07/01 00:45:55;;;;;;;2.10;1.92;;;17.30;99.90;;;;;;5045437;28;22103;-66
2023/07/01 00:48:25;;;;;;;1.88;1.77;;;17.20;99.90;;;;;;5050568;28;20043;-65
2023/07/01 00:50:52;;;;;;;3.70;1.50;;;17.20;99.90;;;;;;5034812;28;20217;-66
2023/07/01 00:53:18;;;;;;;1.55;1.45;;;17.20;99.90;;;;;;5048043;28;20520;-65
2023/07/01 00:55:45;;;;;;;2.35;1.75;;;17.20;99.90;;;;;;5048303;28;20049;-65
2023/07/01 00:58:11;;;;;;;2.40;1.70;;;17.20;99.90;;;;;;5047899;28;20125;-65
2023/07/01 01:00:37;;;;;;;2.47;1.60;;;17.20;99.90;;;;;;5047411;28;20045;-63
2023/07/01 01:03:31;;;;;;;3.60;1.85;;;17.20;99.90;;;;;;5052889;28;20044;-63
2023/07/01 01:06:18;;;;;;;1.67;1.45;;;17.10;99.90;;;;;;5044657;28;20037;-63
2023/07/01 01:08:59;;;;;;;3.78;1.40;;;17.10;99.90;;;;;;5048447;28;20042;-63
2023/07/01 01:11:28;;;;;;;2.90;1.80;;;17.10;99.90;;;;;;5048416;28;20182;-63
2023/07/01 01:13:56;;;;;;;5.47;1.67;;;17.10;99.90;;;;;;5048012;28;20029;-62
2023/07/01 01:16:22;;;;;;;1.98;1.80;;;17.00;99.90;;;;;;5048527;28;20032;-62
2023/07/01 01:18:50;;;;;;;2.20;2.00;;;17.00;99.90;;;;;;5062207;28;20086;-62
2023/07/01 01:21:17;;;;;;;3.95;1.70;;;17.00;99.90;;;;;;5053392;28;20492;-62
2023/07/01 01:23:49;;;;;;;4.30;2.13;;;17.00;99.90;;;;;;5052778;28;20138;-62
2023/07/01 01:26:20;;;;;;;2.05;1.63;;;17.00;99.90;;;;;;5051434;28;20419;-63
2023/07/01 01:28:46;;;;;;;2.40;1.60;;;16.90;99.90;;;;;;5051852;28;20044;-62
2023/07/01 01:31:12;;;;;;;3.53;1.73;;;16.90;99.90;;;;;;5033858;28;21094;-63
2023/07/01 01:33:40;;;;;;;2.08;1.70;;;17.00;99.90;;;;;;5050541;28;20029;-63
2023/07/01 01:36:14;;;;;;;1.60;1.50;;;17.00;99.90;;;;;;5046278;28;20051;-62
2023/07/01 01:38:43;;;;;;;2.85;1.70;;;17.00;99.90;;;;;;5041796;28;20620;-62
2023/07/01 01:41:17;;;;;;;3.38;2.20;;;16.90;99.90;;;;;;5065383;28;20044;-62
2023/07/01 01:44:01;;;;;;;5.05;1.85;;;16.90;99.90;;;;;;5052564;28;20079;-63
2023/07/01 01:46:28;;;;;;;2.97;1.67;;;16.90;99.90;;;;;;5052521;28;20581;-62
2023/07/01 01:48:56;;;;;;;3.80;1.55;;;16.90;99.90;;;;;;5055840;28;20097;-62
2023/07/01 01:51:24;;;;;;;2.75;1.83;;;16.90;99.90;;;;;;5049086;28;20033;-63
2023/07/01 01:53:52;;;;;;;3.38;1.70;;;16.90;99.90;;;;;;5049084;28;22544;-62
2023/07/01 01:56:18;;;;;;;4.00;1.73;;;16.90;99.90;;;;;;5051739;28;20127;-62
2023/07/01 01:58:44;;;;;;;1.60;1.40;;;16.90;99.90;;;;;;5055111;28;20059;-62
2023/07/01 02:01:10;;;;;;;2.70;1.80;;;16.80;99.90;;;;;;5045865;28;20468;-62
2023/07/01 02:03:35;;;;;;;3.05;1.70;;;16.80;99.90;;;;;;5058574;28;20033;-62
2023/07/01 02:06:01;;;;;;;4.95;1.70;;;16.70;99.90;;;;;;5053692;28;20488;-63
2023/07/01 02:08:26;;;;;;;5.57;1.88;;;16.70;99.90;;;;;;5051896;28;20040;-62
2023/07/01 02:10:52;;;;;;;4.05;1.50;;;16.70;99.90;;;;;;5051624;28;20128;-62
2023/07/01 02:13:18;;;;;;;4.50;1.67;;;16.70;99.90;;;;;;5058221;28;20036;-62
2023/07/01 02:15:44;;;;;;;1.67;1.58;;;16.70;99.90;;;;;;5038452;28;20157;-65
2023/07/01 02:18:09;;;;;;;3.13;1.70;;;16.70;99.90;;;;;;5058134;28;20060;-65
2023/07/01 02:20:35;;;;;;;5.28;2.45;;;16.60;99.90;;;;;;5054494;28;20607;-65
2023/07/01 02:23:01;;;;;;;3.35;1.52;;;16.70;99.90;;;;;;5048428;28;20327;-65
2023/07/01 02:25:26;;;;;;;6.28;1.50;;;16.70;99.90;;;;;;5050422;28;20032;-65
2023/07/01 02:27:52;;;;;;;3.13;1.95;;;16.60;99.90;;;;;;5051551;28;20044;-65
2023/07/01 02:30:18;;;;;;;3.13;2.05;;;16.60;99.90;;;;;;5052821;28;20446;-65
2023/07/01 02:32:43;;;;;;;2.60;1.85;;;16.60;99.90;;;;;;5052214;28;20374;-65
2023/07/01 02:35:09;;;;;;;2.15;1.77;;;16.60;99.90;;;;;;5052040;28;20083;-64
2023/07/01 02:37:35;;;;;;;2.22;1.70;;;16.60;99.90;;;;;;5053007;28;20061;-65
2023/07/01 02:40:00;;;;;;;2.28;1.75;;;16.50;99.90;;;;;;5050320;28;20124;-65
2023/07/01 02:42:26;;;;;;;2.08;1.88;;;16.40;99.90;;;;;;5051420;28;20327;-65
2023/07/01 02:44:52;;;;;;;2.35;1.38;;;16.40;99.90;;;;;;5051208;28;20040;-65
2023/07/01 02:47:18;;;;;;;2.55;2.05;;;16.40;99.90;;;;;;5052883;28;20048;-65
2023/07/01 02:49:44;;;;;;;4.18;1.80;;;16.40;99.90;;;;;;5049898;28;20176;-65
2023/07/01 02:52:11;;;;;;;5.57;1.75;;;16.50;99.90;;;;;;5035592;28;20075;-65
2023/07/01 02:54:40;;;;;;;3.63;1.73;;;16.50;99.90;;;;;;5046398;28;20025;-65
2023/07/01 02:57:10;;;;;;;6.50;1.85;;;16.50;99.90;;;;;;5052601;28;20132;-65
2023/07/01 02:59:36;;;;;;;3.58;1.60;;;16.50;99.90;;;;;;5048935;28;20085;-65
2023/07/01 03:02:06;;;;;;;2.88;2.10;;;16.50;99.90;;;;;;5052497;28;20491;-65
2023/07/01 03:04:33;;;;;;;2.13;1.58;;;16.50;99.90;;;;;;5055616;28;20044;-65
2023/07/01 03:06:58;;;;;;;3.33;1.83;;;16.50;99.90;;;;;;5050643;28;21473;-65
2023/07/01 03:09:24;;;;;;;4.13;1.83;;;16.40;99.90;;;;;;5053615;28;20048;-65
2023/07/01 03:11:52;;;;;;;6.57;1.58;;;16.40;99.90;;;;;;5051097;28;20511;-65
2023/07/01 03:14:18;;;;;;;2.80;2.00;;;16.50;99.90;;;;;;5054521;28;20544;-65
2023/07/01 03:16:44;;;;;;;2.95;1.20;;;16.50;99.90;;;;;;5043423;28;20475;-65
2023/07/01 03:19:10;;;;;;;2.88;1.70;;;16.50;99.90;;;;;;5049008;28;20135;-65
2023/07/01 03:21:37;;;;;;;1.60;1.50;;;16.50;99.90;;;;;;5048468;28;20033;-65
2023/07/01 03:24:03;;;;;;;2.75;1.73;;;16.50;99.90;;;;;;5049499;28;20076;-65
2023/07/01 03:26:28;;;;;;;1.92;1.80;;;16.40;99.90;;;;;;5049268;28;20170;-65
2023/07/01 03:28:54;;;;;;;3.25;1.80;;;16.40;99.90;;;;;;5048741;28;20033;-63
2023/07/01 03:31:21;;;;;;;5.03;1.90;;;16.30;99.90;;;;;;5052628;28;20041;-62
2023/07/01 03:33:47;;;;;;;4.53;2.03;;;16.30;99.90;;;;;;5048691;28;20025;-62
2023/07/01 03:36:12;;;;;;;3.33;1.88;;;16.30;99.90;;;;;;5048308;28;20074;-63
2023/07/01 03:38:38;;;;;;;2.35;2.13;;;16.30;99.90;;;;;;5048866;28;20044;-62
2023/07/01 03:41:06;;;;;;;2.97;1.90;;;16.40;99.90;;;;;;5054688;28;20061;-63
2023/07/01 03:43:32;;;;;;;5.40;1.90;;;16.50;99.90;;;;;;5049527;28;20088;-62
2023/07/01 03:45:57;;;;;;;6.38;1.88;;;16.50;99.90;;;;;;5049217;28;20144;-62
2023/07/01 03:48:23;;;;;;;5.38;1.60;;;16.50;99.90;;;;;;5051847;28;20036;-62
2023/07/01 03:50:49;;;;;;;3.80;1.73;;;16.50;99.90;;;;;;5043280;28;20045;-62
2023/07/01 03:53:15;;;;;;;1.90;1.48;;;16.50;99.90;;;;;;5048272;28;20193;-63
2023/07/01 03:55:40;;;;;;;3.15;1.65;;;16.50;99.90;;;;;;5051865;28;20563;-62
2023/07/01 03:58:06;;;;;;;2.20;2.00;;;16.50;99.90;;;;;;5051662;28;20073;-62
2023/07/01 04:00:31;;;;;;;3.75;1.80;;;16.50;99.90;;;;;;5047980;28;20051;-62
2023/07/01 04:03:05;;;;;;;3.35;1.95;;;16.60;99.90;;;;;;5050364;28;20028;-62
2023/07/01 04:05:35;;;;;;;2.05;1.80;;;16.60;99.90;;;;;;5047101;28;20233;-65
2023/07/01 04:08:01;;;;;;;5.80;1.80;;;16.70;99.90;;;;;;5046731;28;20147;-65
2023/07/01 04:10:27;;;;;;;3.78;1.73;;;16.70;99.90;;;;;;5049969;28;20029;-65
2023/07/01 04:12:53;;;;;;;1.95;1.85;;;16.80;99.90;;;;;;5048156;28;20029;-65
2023/07/01 04:15:19;;;;;;;4.55;2.20;;;16.90;99.90;;;;;;5044690;28;20060;-65
2023/07/01 04:17:48;;;;;;;6.88;2.13;;;17.00;99.90;;;;;;5052052;28;20050;-65
2023/07/01 04:20:14;;;;;;;52.35;4.35;;;17.10;99.90;;;;;;5047518;28;20049;-65
2023/07/01 04:22:41;;;;;;;4.13;2.45;;;17.20;99.90;;;;;;5045809;28;20071;-66
2023/07/01 04:25:08;;;;;;;3.25;2.00;;;17.30;99.90;;;;;;5045564;28;20415;-66
2023/07/01 04:27:34;;;;;;;3.03;1.83;;;17.40;99.90;;;;;;5050369;28;20626;-65
2023/07/01 04:30:01;;;;;;;4.20;2.15;;;17.50;99.90;;;;;;5052280;28;20493;-66
2023/07/01 04:32:28;;;;;;;6.72;2.17;;;17.60;99.90;;;;;;5045312;28;20048;-65
2023/07/01 04:34:54;;;;;;;2.20;2.00;;;17.70;99.90;;;;;;5046128;28;20029;-66
2023/07/01 04:37:19;;;;;;;3.50;2.00;;;17.90;99.90;;;;;;5049501;28;20117;-66
2023/07/01 04:39:45;;;;;;;2.10;1.90;;;18.00;99.90;;;;;;5050129;28;20127;-66
2023/07/01 04:42:11;;;;;;;3.10;2.10;;;18.10;99.90;;;;;;5046027;28;20127;-66
2023/07/01 04:44:37;;;;;;;3.47;2.17;;;18.30;99.90;;;;;;5047179;28;20701;-65
2023/07/01 04:47:02;;;;;;;3.08;2.03;;;18.40;99.90;;;;;;5053141;28;20515;-66
2023/07/01 04:49:28;;;;;;;1.95;1.85;;;18.40;99.90;;;;;;5044174;28;21276;-66
2023/07/01 04:51:53;;;;;;;5.00;2.20;;;18.50;99.90;;;;;;5048914;28;20045;-66
2023/07/01 04:54:19;;;;;;;4.28;2.25;;;18.60;99.90;;;;;;5047954;28;20037;-66
2023/07/01 04:56:45;;;;;;;7.32;2.90;;;18.80;99.90;;;;;;5045618;28;20059;-66
2023/07/01 04:59:10;;;;;;;5.82;2.70;;;18.90;99.90;;;;;;5044122;28;20112;-65
2023/07/01 05:01:36;;;;;;;5.85;2.90;;;18.90;99.90;;;;;;5044426;28;20685;-66
2023/07/01 05:04:02;;;;;;;2.85;2.42;;;19.00;99.90;;;;;;5042042;28;20144;-67
2023/07/01 05:06:28;;;;;;;3.70;2.33;;;19.10;99.90;;;;;;5036457;28;20045;-67
2023/07/01 05:08:53;;;;;;;3.50;2.65;;;19.10;99.90;;;;;;5027622;28;20452;-61
2023/07/01 05:11:19;;;;;;;2.35;2.15;;;19.20;99.90;;;;;;5044167;28;20653;-61
2023/07/01 05:13:45;;;;;;;3.35;2.80;;;19.30;99.90;;;;;;5037261;28;20043;-61
2023/07/01 05:16:11;;;;;;;2.90;2.47;;;19.30;99.90;;;;;;5038854;28;20049;-60
2023/07/01 05:18:37;;;;;;;5.32;2.30;;;19.40;99.90;;;;;;5028051;28;20052;-61
2023/07/01 05:21:03;;;;;;;5.13;2.47;;;19.50;99.90;;;;;;5041460;28;20535;-61
2023/07/01 05:23:29;;;;;;;4.95;2.67;;;19.50;99.90;;;;;;5044819;28;20043;-61
2023/07/01 05:25:54;;;;;;;4.30;2.40;;;19.60;99.90;;;;;;5038917;28;20971;-61
2023/07/01 05:28:20;;;;;;;3.58;2.17;;;19.70;99.90;;;;;;5042483;28;20476;-61
2023/07/01 05:30:46;;;;;;;4.40;2.83;;;19.80;99.90;;;;;;5044673;28;20039;-61
2023/07/01 05:33:12;;;;;;;3.80;2.40;;;19.90;99.90;;;;;;5042734;28;20329;-61
2023/07/01 05:35:38;;;;;;;2.25;2.05;;;20.00;99.90;;;;;;5044515;28;20060;-61
2023/07/01 05:38:11;;;;;;;3.13;2.33;;;20.10;99.90;;;;;;5047672;28;20568;-61
2023/07/01 05:40:37;;;;;;;2.67;2.20;;;20.20;99.90;;;;;;5044628;28;20110;-62
2023/07/01 05:43:03;;;;;;;4.68;2.75;;;20.30;99.90;;;;;;5044425;28;20502;-67
2023/07/01 05:45:28;;;;;;;4.93;2.38;;;20.30;99.90;;;;;;5039869;28;20299;-62
2023/07/01 05:47:54;;;;;;;4.45;2.40;;;20.40;99.90;;;;;;5042628;28;20033;-62
2023/07/01 05:50:19;;;;;;;3.83;2.70;;;20.50;99.90;;;;;;5047464;28;20660;-69
2023/07/01 05:52:45;;;;;;;5.22;2.55;;;20.60;99.90;;;;;;5044712;28;20044;-68
2023/07/01 05:55:11;;;;;;;6.03;2.72;;;20.70;99.90;;;;;;5048697;28;20147;-75
2023/07/01 05:57:36;;;;;;;4.05;2.67;;;20.90;99.90;;;;;;5048825;28;20066;-75
2023/07/01 06:00:04;;;;;;;3.38;2.40;;;21.00;99.90;;;;;;5047698;28;20036;-74
2023/07/01 06:02:30;;;;;;;16.08;2.90;;;21.00;99.90;;;;;;5050892;28;20551;-74
2023/07/01 06:04:56;;;;;;;5.10;2.40;;;21.10;99.90;;;;;;5051314;28;20036;-74
2023/07/01 06:07:22;;;;;;;7.03;2.42;;;21.20;99.90;;;;;;5053689;28;20063;-74
2023/07/01 06:09:48;;;;;;;5.50;2.15;;;21.30;99.90;;;;;;5037722;28;21541;-74
2023/07/01 06:12:14;;;;;;;5.47;2.55;;;21.30;99.90;;;;;;5050520;28;20137;-68
2023/07/01 06:14:40;;;;;;;4.53;1.98;;;21.40;99.90;;;;;;5052727;28;20560;-75
2023/07/01 06:17:06;;;;;;;2.78;2.47;;;21.50;99.90;;;;;;5053980;28;20166;-75
2023/07/01 06:19:32;;;;;;;2.88;2.30;;;21.60;99.90;;;;;;5056005;28;20152;-75
2023/07/01 06:21:58;;;;;;;8.85;2.50;;;21.70;99.90;;;;;;5054502;28;20101;-75
2023/07/01 06:24:23;;;;;;;5.72;2.22;;;21.70;99.90;;;;;;5049132;28;20033;-74
2023/07/01 06:26:49;;;;;;;13.23;2.70;;;21.70;99.90;;;;;;5052179;28;20025;-75
2023/07/01 06:29:15;;;;;;;4.38;2.08;;;21.70;99.90;;;;;;5048582;28;20044;-75
2023/07/01 06:31:41;;;;;;;16.25;2.90;;;21.70;99.90;;;;;;5048812;28;20050;-75
2023/07/01 06:34:13;;;;;;;6.65;2.50;;;21.70;99.90;;;;;;5047853;28;20579;-74
2023/07/01 06:36:39;;;;;;;15.15;2.58;;;21.80;99.90;;;;;;5050126;28;20051;-75
2023/07/01 06:39:05;;;;;;;6.68;3.13;;;21.70;99.90;;;;;;5048007;28;20420;-75
2023/07/01 06:41:30;;;;;;;8.18;2.42;;;21.80;99.90;;;;;;5051068;28;20029;-74
2023/07/01 06:43:56;;;;;;;6.80;2.40;;;21.80;99.90;;;;;;5044808;28;20040;-65
2023/07/01 06:46:21;;;;;;;69.63;5.55;;;21.90;99.90;;;;;;5040165;28;20485;-65
2023/07/01 06:48:47;;;;;;;13.15;2.60;;;21.90;99.90;;;;;;5052143;28;20043;-65
2023/07/01 06:51:13;;;;;;;2.53;2.17;;;22.00;99.90;;;;;;5053936;28;20040;-82
2023/07/01 06:53:40;;;;;;;6.82;2.50;;;22.00;99.90;;;;;;5039844;28;20040;-81
2023/07/01 06:56:06;;;;;;;5.40;2.20;;;22.10;99.90;;;;;;5055684;28;20044;-81
2023/07/01 06:58:32;;;;;;;3.70;2.20;;;22.20;99.90;;;;;;5050482;28;20032;-80
2023/07/01 07:00:57;;;;;;;5.70;2.50;;;22.40;99.90;;;;;;5050674;28;20089;-80
2023/07/01 07:03:23;;;;;;;6.20;2.22;;;22.50;99.90;;;;;;5048296;28;20065;-81
2023/07/01 07:05:49;;;;;;;3.42;2.40;;;22.60;99.90;;;;;;5055531;28;20124;-82
2023/07/01 07:08:14;;;;;;;6.53;2.38;;;22.70;99.90;;;;;;5042207;28;20128;-65
2023/07/01 07:10:40;;;;;;;6.68;2.60;;;22.80;99.90;;;;;;5049739;28;20329;-65
2023/07/01 07:13:06;;;;;;;3.78;2.42;;;22.90;99.90;;;;;;5042426;28;20052;-65
2023/07/01 07:15:31;;;;;;;3.40;2.05;;;23.00;99.90;;;;;;5039687;28;20432;-66
2023/07/01 07:17:57;;;;;;;4.07;2.60;;;23.00;99.90;;;;;;5054850;28;20103;-65
2023/07/01 07:20:23;;;;;;;23.02;3.40;;;23.00;99.90;;;;;;5042956;28;20032;-64
2023/07/01 07:22:48;;;;;;;3.70;2.20;;;23.20;99.90;;;;;;5036686;28;20072;-65
2023/07/01 07:25:17;;;;;;;5.78;2.20;;;23.30;99.90;;;;;;5054200;28;20610;-65
2023/07/01 07:27:44;;;;;;;6.03;2.42;;;23.40;99.90;;;;;;5046299;28;20100;-65
2023/07/01 07:30:11;;;;;;;3.80;2.00;;;23.60;99.90;;;;;;5048039;28;20065;-65
2023/07/01 07:32:37;;;;;;;4.93;2.60;;;23.70;99.90;;;;;;5035203;28;20032;-64
2023/07/01 07:35:03;;;;;;;8.40;2.33;;;23.80;99.90;;;;;;5052719;28;20110;-66
2023/07/01 07:37:28;;;;;;;5.03;2.33;;;23.90;99.90;;;;;;5051242;28;20711;-66
2023/07/01 07:39:55;;;;;;;2.72;2.15;;;24.00;99.90;;;;;;5052656;28;20041;-66
2023/07/01 07:42:21;;;;;;;2.85;2.10;;;24.10;99.90;;;;;;5054846;28;20036;-67
2023/07/01 07:44:47;;;;;;;2.78;2.50;;;24.20;99.90;;;;;;5050435;28;20029;-67
2023/07/01 07:47:14;;;;;;;6.97;2.38;;;24.30;99.90;;;;;;5053558;28;20623;-67
2023/07/01 07:49:39;;;;;;;9.63;3.30;;;24.30;99.90;;;;;;5047683;28;20098;-67
2023/07/01 07:52:05;;;;;;;3.33;2.20;;;24.30;99.90;;;;;;5058364;28;20040;-67
2023/07/01 07:54:31;;;;;;;6.00;3.03;;;24.40;99.90;;;;;;5050900;28;20204;-66
2023/07/01 07:56:59;;;;;;;4.15;2.75;;;24.50;99.90;;;;;;5051542;28;20068;-66
2023/07/01 07:59:28;;;;;;;2.78;2.50;;;24.60;99.90;;;;;;5051458;28;20041;-66
2023/07/01 08:01:56;;;;;;;5.18;2.17;;;24.70;99.90;;;;;;5046400;28;20021;-66
2023/07/01 08:04:23;;;;;;;3.42;2.47;;;24.70;99.90;;;;;;5050755;28;20029;-66
2023/07/01 08:06:48;;;;;;;8.50;2.58;;;24.80;99.90;;;;;;5038333;28;20036;-67
2023/07/01 08:09:14;;;;;;;3.40;2.40;;;24.80;99.90;;;;;;5040827;28;22015;-65
2023/07/01 08:11:41;;;;;;;8.32;2.90;;;24.90;99.90;;;;;;5054661;28;20520;-76
2023/07/01 08:14:06;;;;;;;4.32;2.70;;;24.90;99.90;;;;;;5050484;28;20032;-67
2023/07/01 08:16:32;;;;;;;12.45;2.83;;;25.00;99.90;;;;;;5042911;28;20048;-67
2023/07/01 08:18:58;;;;;;;3.13;2.50;;;25.10;99.90;;;;;;5049092;28;20028;-80
2023/07/01 08:21:24;;;;;;;7.57;3.05;;;25.10;99.90;;;;;;5049309;28;20028;-77
2023/07/01 08:23:49;;;;;;;3.03;2.22;;;25.10;99.90;;;;;;5050475;28;20761;-64
2023/07/01 08:26:15;;;;;;;2.90;2.45;;;25.10;99.90;;;;;;5047172;28;20036;-64
2023/07/01 08:28:40;;;;;;;3.17;2.85;;;25.20;99.90;;;;;;5051428;28;21007;-65
2023/07/01 08:31:06;;;;;;;5.70;3.15;;;25.30;99.90;;;;;;5044856;28;20071;-64
2023/07/01 08:33:32;;;;;;;3.25;2.90;;;25.40;99.90;;;;;;5046898;28;20517;-64
2023/07/01 08:35:58;;;;;;;2.88;2.45;;;25.40;99.90;;;;;;5040030;28;20052;-64
2023/07/01 08:38:24;;;;;;;4.47;2.33;;;25.40;99.90;;;;;;5031864;28;20052;-64
2023/07/01 08:40:52;;;;;;;2.83;2.63;;;25.40;99.90;;;;;;5033390;28;20032;-64
2023/07/01 08:43:20;;;;;;;2.83;2.33;;;25.30;99.90;;;;;;5036770;28;20119;-80
2023/07/01 08:45:51;;;;;;;3.65;2.63;;;25.30;99.90;;;;;;5042308;28;20145;-77
2023/07/01 08:48:21;;;;;;;4.03;2.53;;;25.40;99.90;;;;;;5039732;28;20033;-80
2023/07/01 08:50:57;;;;;;;6.88;2.45;;;25.50;99.90;;;;;;5038080;28;20060;-77
2023/07/01 08:53:23;;;;;;;12.13;3.45;;;25.60;99.90;;;;;;5039446;28;20029;-77
2023/07/01 08:55:49;;;;;;;2.95;2.70;;;25.70;99.90;;;;;;5034314;28;20032;-78
2023/07/01 08:58:15;;;;;;;2.88;2.58;;;25.60;99.90;;;;;;5048158;28;20036;-78
2023/07/01 09:00:43;;;;;;;2.67;2.45;;;25.70;99.90;;;;;;5047557;28;20050;-78
2023/07/01 09:03:11;;;;;;;3.80;2.42;;;25.70;99.90;;;;;;5051229;28;20047;-78
2023/07/01 09:05:37;;;;;;;3.67;2.45;;;25.80;99.90;;;;;;5045759;28;20036;-78
2023/07/01 09:08:03;;;;;;;2.47;2.28;;;25.90;99.90;;;;;;5040031;28;20041;-78
2023/07/01 09:10:28;;;;;;;3.78;3.40;;;26.00;99.90;;;;;;5050504;28;20921;-79
2023/07/01 09:12:54;;;;;;;4.63;2.40;;;26.10;99.90;;;;;;5054018;28;20040;-78
2023/07/01 09:15:20;;;;;;;3.15;2.45;;;26.10;99.90;;;;;;5053419;28;20068;-80
2023/07/01 09:17:45;;;;;;;3.85;2.58;;;26.10;99.90;;;;;;5042595;28;20340;-66
2023/07/01 09:20:13;;;;;;;3.40;2.25;;;26.10;99.90;;;;;;5046513;28;20041;-66
2023/07/01 09:22:41;;;;;;;4.22;2.30;;;26.20;99.90;;;;;;5045472;28;20483;-66
2023/07/01 09:25:07;;;;;;;2.42;2.22;;;26.30;99.90;;;;;;5054131;28;20082;-66
2023/07/01 09:27:48;;;;;;;2.75;2.47;;;26.40;99.90;;;;;;5057808;28;20036;-67
2023/07/01 09:30:20;;;;;;;2.65;2.38;;;26.50;99.90;;;;;;5051858;28;20146;-67
2023/07/01 09:32:46;;;;;;;6.63;2.65;;;26.60;99.90;;;;;;5050928;28;20528;-67
2023/07/01 09:35:12;;;;;;;3.05;2.50;;;26.70;99.90;;;;;;5040003;28;20041;-67
2023/07/01 09:37:38;;;;;;;2.83;2.63;;;26.70;99.90;;;;;;5036576;28;20089;-67
2023/07/01 09:40:21;;;;;;;5.20;2.55;;;26.70;99.90;;;;;;5052611;28;20032;-67
2023/07/01 09:42:55;;;;;;;2.63;2.42;;;26.80;99.90;;;;;;5056328;28;20098;-66
2023/07/01 09:45:21;;;;;;;3.20;2.70;;;26.90;99.90;;;;;;5052332;28;20040;-67
2023/07/01 09:47:54;;;;;;;3.50;2.30;;;26.90;99.90;;;;;;5049513;28;20040;-67
2023/07/01 09:50:26;;;;;;;3.35;2.40;;;27.00;99.90;;;;;;5048118;28;20115;-67
2023/07/01 09:52:53;;;;;;;;;;;26.90;99.90;;;;;;5072308;28;20054;-78
2023/07/01 09:55:19;;;;;;;23.23;8.68;;;27.00;99.90;;;;;;5049715;28;20316;-66
2023/07/01 09:57:45;;;;;;;3.15;2.78;;;27.00;99.90;;;;;;5060994;28;20025;-67
2023/07/01 10:00:15;;;;;;;3.70;2.40;;;27.10;99.90;;;;;;5058659;28;20035;-66
2023/07/01 10:02:43;;;;;;;4.22;2.40;;;26.90;99.90;;;;;;5049195;28;20040;-66
2023/07/01 10:05:09;;;;;;;3.03;2.53;;;26.80;99.90;;;;;;5054674;28;20164;-66
2023/07/01 10:07:35;;;;;;;2.33;2.13;;;26.80;99.90;;;;;;5057883;28;20064;-67
2023/07/01 10:10:01;;;;;;;2.47;2.28;;;26.90;99.90;;;;;;5057814;28;20072;-67
2023/07/01 10:12:27;;;;;;;2.42;2.17;;;26.90;99.90;;;;;;5046508;28;20040;-67
2023/07/01 10:14:54;;;;;;;3.08;2.40;;;26.90;99.90;;;;;;5056322;28;20032;-66
2023/07/01 10:17:20;;;;;;;2.83;2.47;;;26.90;99.90;;;;;;5059453;28;20674;-66
2023/07/01 10:19:48;;;;;;;3.45;2.33;;;26.90;99.90;;;;;;5055469;28;20162;-66
2023/07/01 10:22:22;;;;;;;2.40;2.20;;;27.00;99.90;;;;;;5056584;28;20067;-67
2023/07/01 10:25:02;;;;;;;2.63;2.42;;;27.10;99.90;;;;;;5053725;28;20043;-67
2023/07/01 10:27:40;;;;;;;7.32;2.83;;;27.10;99.90;;;;;;5053639;28;20035;-68
2023/07/01 10:30:11;;;;;;;2.67;2.45;;;27.20;99.90;;;;;;5051545;28;20408;-68
2023/07/01 10:32:37;;;;;;;2.25;2.00;;;27.30;99.90;;;;;;5056419;28;20162;-69
2023/07/01 10:35:10;;;;;;;3.45;2.22;;;27.40;99.90;;;;;;5052057;28;20044;-69
2023/07/01 10:37:35;;;;;;;4.65;2.20;;;27.50;99.90;;;;;;5042700;28;21086;-69
2023/07/01 10:40:22;;;;;;;6.25;3.67;;;27.50;99.90;;;;;;5043814;28;20409;-69
2023/07/01 10:42:48;;;;;;;6.75;2.42;;;27.40;99.90;;;;;;5037011;28;20145;-70
2023/07/01 10:45:13;;;;;;;2.47;2.28;;;27.30;99.90;;;;;;5045136;28;20120;-77
2023/07/01 10:48:02;;;;;;;4.10;2.25;;;27.30;99.90;;;;;;5057445;28;20150;-78
2023/07/01 10:50:28;;;;;;;4.30;2.67;;;27.30;99.90;;;;;;5054366;28;20044;-78
2023/07/01 10:52:59;;;;;;;2.58;2.35;;;27.40;99.90;;;;;;5038173;28;20044;-76
2023/07/01 10:55:43;;;;;;;2.97;2.03;;;27.40;99.90;;;;;;5054366;28;20057;-84
2023/07/01 10:58:26;;;;;;;5.90;2.50;;;27.50;99.90;;;;;;5057300;28;20044;-82
2023/07/01 11:01:01;;;;;;;3.60;2.25;;;27.50;99.90;;;;;;5049308;28;20028;-86
2023/07/01 11:03:36;;;;;;;2.58;2.38;;;27.60;99.90;;;;;;5055755;28;20028;-80
2023/07/01 11:06:05;;;;;;;2.10;1.90;;;27.70;99.90;;;;;;5052086;28;20040;-80
2023/07/01 11:08:44;;;;;;;2.92;1.95;;;27.70;99.90;;;;;;5058802;28;20036;-64
2023/07/01 11:11:10;;;;;;;2.53;2.10;;;27.70;99.70;;;;;;5031213;28;20034;-65
2023/07/01 11:13:35;;;;;;;4.18;2.28;;;27.70;99.40;;;;;;5057920;28;20477;-64
2023/07/01 11:16:03;;;;;;;2.05;1.80;;;27.70;99.30;;;;;;5051093;28;20109;-64
2023/07/01 11:18:47;;;;;;;2.25;2.00;;;27.60;99.20;;;;;;5050045;28;20045;-64
2023/07/01 11:21:17;;;;;;;2.20;1.90;;;27.60;99.00;;;;;;5049424;28;20619;-65
2023/07/01 11:23:50;;;;;;;2.63;2.08;;;27.50;99.40;;;;;;5039393;28;20051;-66
2023/07/01 11:26:30;;;;;;;1.90;1.80;;;27.50;98.70;;;;;;5047449;28;20111;-80
2023/07/01 11:28:55;;;;;;;3.00;2.08;;;27.50;98.50;;;;;;5048584;28;20111;-79
2023/07/01 11:31:24;;;;;;;3.35;2.25;;;27.50;98.40;;;;;;5048074;28;20051;-82
2023/07/01 11:33:54;;;;;;;4.07;2.17;;;27.40;98.60;;;;;;5053015;28;20032;-82
2023/07/01 11:36:35;;;;;;;2.78;2.17;;;27.40;99.20;;;;;;5046869;28;20045;-84
2023/07/01 11:39:15;;;;;;;3.58;2.50;;;27.50;99.80;;;;;;5052126;28;20551;-80
2023/07/01 11:41:43;;;;;;;2.70;2.45;;;27.60;99.60;;;;;;5046869;28;20244;-79
2023/07/01 11:44:11;;;;;;;2.20;2.10;;;27.70;99.00;;;;;;5046542;28;20029;-65
2023/07/01 11:46:39;;;;;;;2.40;2.20;;;27.70;99.30;;;;;;5046159;28;20463;-64
2023/07/01 11:49:13;;;;;;;2.38;2.17;;;27.80;99.90;;;;;;5050124;28;20119;-65
2023/07/01 11:51:41;;;;;;;5.50;2.42;;;27.90;99.10;;;;;;5051355;28;20178;-65
2023/07/01 11:54:06;;;;;;;2.42;2.17;;;28.00;99.70;;;;;;5050171;28;20129;-65
2023/07/01 11:56:32;;;;;;;2.50;2.30;;;28.00;98.50;;;;;;5048847;28;20041;-65
2023/07/01 11:58:58;;;;;;;2.20;2.10;;;27.90;98.60;;;;;;5051493;28;20394;-65
2023/07/01 12:01:24;;;;;;;2.97;2.35;;;27.80;97.40;;;;;;5046166;28;20048;-65
2023/07/01 12:03:53;;;;;;;3.30;2.45;;;27.60;99.00;;;;;;5053422;28;20037;-64
2023/07/01 12:06:28;;;;;;;2.60;2.40;;;27.60;98.90;;;;;;5049127;28;20102;-65
2023/07/01 12:09:02;;;;;;;3.58;2.35;;;27.50;98.70;;;;;;5050715;28;20054;-65
2023/07/01 12:11:28;;;;;;;2.47;2.20;;;27.50;99.30;;;;;;5048418;28;20032;-65
2023/07/01 12:13:54;;;;;;;8.48;2.67;;;27.50;99.10;;;;;;5048234;28;20090;-65
2023/07/01 12:16:19;;;;;;;3.22;2.80;;;27.40;99.20;;;;;;5046480;28;20041;-66
2023/07/01 12:18:45;;;;;;;2.92;2.53;;;27.40;99.80;;;;;;5051324;28;20043;-65
2023/07/01 12:21:11;;;;;;;4.03;2.80;;;27.30;99.90;;;;;;5051603;28;20042;-65
2023/07/01 12:23:43;;;;;;;7.22;3.00;;;27.20;99.90;;;;;;5050561;28;20481;-65
2023/07/01 12:26:12;;;;;;;4.03;2.60;;;27.20;99.90;;;;;;5046210;28;20046;-67
2023/07/01 12:28:39;;;;;;;9.48;3.30;;;27.10;99.90;;;;;;5044418;28;20044;-65
2023/07/01 12:31:07;;;;;;;3.40;2.67;;;27.00;99.90;;;;;;5045207;28;20029;-64
2023/07/01 12:33:34;;;;;;;2.83;2.53;;;27.00;99.90;;;;;;5029671;28;20532;-64
2023/07/01 12:36:00;;;;;;;4.30;2.85;;;27.00;99.90;;;;;;5055693;28;20098;-65
2023/07/01 12:38:27;;;;;;;2.80;2.60;;;27.00;99.90;;;;;;5046444;28;20045;-64
2023/07/01 12:40:54;;;;;;;2.90;2.70;;;27.00;99.90;;;;;;5047578;28;20051;-65
2023/07/01 12:43:26;;;;;;;3.60;3.00;;;26.90;99.90;;;;;;5041611;28;20417;-65
2023/07/01 12:45:53;;;;;;;3.10;2.80;;;26.90;99.90;;;;;;5044851;28;20043;-65
2023/07/01 12:48:21;;;;;;;3.67;2.83;;;26.70;99.90;;;;;;5048388;28;20560;-65